Terminal Aerodrome Forecast
Issued by NWS

Home | Current Version | Previous Version | Text Only | Print | Product List | Glossary On
Versions: 1 2 3 4 5 6 7 8 9 10 11 12 13
000
FTAK31 PAJN 230600 AAA
TAFASI
TAF AMD
PASI 230640Z 2307/2406 33006KT P6SM VCSH SCT025 OVC100
      TEMPO 2307/2309 -SHRA BKN025 OVC050
     FM230900 VRB03KT P6SM VCSH SCT025 OVC050
     FM231500 VRB03KT P6SM VCSH SCT025 BKN050 BKN100
     FM231800 33006KT P6SM SCT060 BKN120
     FM240300 VRB04KT P6SM SCT040 BKN080=

USA.gov is the U.S. government's official web portal to all federal, state and local government web resources and services.